sensor_id;sensor_type;location;lat;lon;timestamp;pressure;altitude;pressure_sealevel;temperature;humidity
39075;BME280;24826;52.070;20.970;2023-01-31T00:00:21;61535.88;;;-147.04;100.00
39075;BME280;24826;52.070;20.970;2023-01-31T00:03:24;61476.22;;;-147.04;100.00
39075;BME280;24826;52.070;20.970;2023-01-31T00:06:18;61464.28;;;-147.04;100.00
39075;BME280;24826;52.070;20.970;2023-01-31T00:09:05;61464.28;;;-147.04;100.00
39075;BME280;24826;52.070;20.970;2023-01-31T00:11:49;61472.22;;;-147.04;100.00
39075;BME280;24826;52.070;20.970;2023-01-31T00:14:34;61500.06;;;-147.04;100.00
39075;BME280;24826;52.070;20.970;2023-01-31T00:17:18;61482.19;;;-147.04;100.00
39075;BME280;24826;52.070;20.970;2023-01-31T00:20:03;61476.22;;;-147.04;100.00
39075;BME280;24826;52.070;20.970;2023-01-31T00:22:47;61478.19;;;-147.04;100.00
39075;BME280;24826;52.070;20.970;2023-01-31T00:25:32;61456.31;;;-147.04;100.00
39075;BME280;24826;52.070;20.970;2023-01-31T00:28:16;61472.22;;;-147.04;100.00
39075;BME280;24826;52.070;20.970;2023-01-31T00:31:00;61456.31;;;-147.04;100.00
39075;BME280;24826;52.070;20.970;2023-01-31T00:33:47;61462.28;;;-147.04;100.00
39075;BME280;24826;52.070;20.970;2023-01-31T00:36:33;61442.41;;;-147.04;100.00
39075;BME280;24826;52.070;20.970;2023-01-31T00:39:17;61472.22;;;-147.04;100.00
39075;BME280;24826;52.070;20.970;2023-01-31T00:42:02;61476.22;;;-147.04;100.00
39075;BME280;24826;52.070;20.970;2023-01-31T00:44:46;61456.31;;;-147.04;100.00
39075;BME280;24826;52.070;20.970;2023-01-31T00:47:31;61464.28;;;-147.04;100.00
39075;BME280;24826;52.070;20.970;2023-01-31T00:50:15;61466.25;;;-147.04;100.00
39075;BME280;24826;52.070;20.970;2023-01-31T00:53:00;61486.16;;;-147.04;100.00
39075;BME280;24826;52.070;20.970;2023-01-31T00:55:45;61440.41;;;-147.04;100.00
39075;BME280;24826;52.070;20.970;2023-01-31T00:58:30;61508.03;;;-147.04;100.00
39075;BME280;24826;52.070;20.970;2023-01-31T01:01:17;61464.28;;;-147.04;100.00
39075;BME280;24826;52.070;20.970;2023-01-31T01:04:03;61498.09;;;-147.04;100.00
39075;BME280;24826;52.070;20.970;2023-01-31T01:06:47;61466.25;;;-147.04;100.00
39075;BME280;24826;52.070;20.970;2023-01-31T01:09:33;61486.16;;;-147.04;100.00
39075;BME280;24826;52.070;20.970;2023-01-31T01:12:18;61504.03;;;-147.04;100.00
39075;BME280;24826;52.070;20.970;2023-01-31T01:15:02;61448.38;;;-147.04;100.00
39075;BME280;24826;52.070;20.970;2023-01-31T01:17:47;61472.22;;;-147.04;100.00
39075;BME280;24826;52.070;20.970;2023-01-31T01:20:33;61458.31;;;-147.04;100.00
39075;BME280;24826;52.070;20.970;2023-01-31T01:23:17;61450.34;;;-147.04;100.00
39075;BME280;24826;52.070;20.970;2023-01-31T01:26:03;61464.28;;;-147.04;100.00
39075;BME280;24826;52.070;20.970;2023-01-31T01:28:48;61476.22;;;-147.04;100.00
39075;BME280;24826;52.070;20.970;2023-01-31T01:31:34;61452.34;;;-147.04;100.00
39075;BME280;24826;52.070;20.970;2023-01-31T01:34:18;61494.09;;;-147.04;100.00
39075;BME280;24826;52.070;20.970;2023-01-31T01:37:03;61488.13;;;-147.04;100.00
39075;BME280;24826;52.070;20.970;2023-01-31T01:39:54;61464.28;;;-147.04;100.00
39075;BME280;24826;52.070;20.970;2023-01-31T01:42:39;61494.09;;;-147.04;100.00
39075;BME280;24826;52.070;20.970;2023-01-31T01:45:23;61454.34;;;-147.04;100.00
39075;BME280;24826;52.070;20.970;2023-01-31T01:48:12;61468.25;;;-147.04;100.00
39075;BME280;24826;52.070;20.970;2023-01-31T01:51:01;61466.25;;;-147.04;100.00
39075;BME280;24826;52.070;20.970;2023-01-31T01:53:49;61464.28;;;-147.04;100.00
39075;BME280;24826;52.070;20.970;2023-01-31T01:56:38;61486.16;;;-147.04;100.00
39075;BME280;24826;52.070;20.970;2023-01-31T01:59:29;61468.25;;;-147.04;100.00
39075;BME280;24826;52.070;20.970;2023-01-31T02:02:14;61472.22;;;-147.04;100.00
39075;BME280;24826;52.070;20.970;2023-01-31T02:04:59;61480.19;;;-147.04;100.00
39075;BME280;24826;52.070;20.970;2023-01-31T02:07:43;61476.22;;;-147.04;100.00
39075;BME280;24826;52.070;20.970;2023-01-31T02:13:22;61472.22;;;-147.04;100.00
39075;BME280;24826;52.070;20.970;2023-01-31T02:16:07;61476.22;;;-147.04;100.00
39075;BME280;24826;52.070;20.970;2023-01-31T02:18:52;61472.22;;;-147.04;100.00
39075;BME280;24826;52.070;20.970;2023-01-31T02:21:58;61484.16;;;-147.04;100.00
39075;BME280;24826;52.070;20.970;2023-01-31T02:31:24;61480.19;;;-147.04;100.00
39075;BME280;24826;52.070;20.970;2023-01-31T02:37:31;61448.38;;;-147.04;100.00
39075;BME280;24826;52.070;20.970;2023-01-31T02:46:59;61484.16;;;-147.04;100.00
39075;BME280;24826;52.070;20.970;2023-01-31T02:49:56;61472.22;;;-147.04;100.00
39075;BME280;24826;52.070;20.970;2023-01-31T02:53:12;61480.19;;;-147.04;100.00
39075;BME280;24826;52.070;20.970;2023-01-31T02:56:18;61472.22;;;-147.04;100.00
39075;BME280;24826;52.070;20.970;2023-01-31T02:59:06;61486.16;;;-147.04;100.00
39075;BME280;24826;52.070;20.970;2023-01-31T03:01:59;61470.25;;;-147.04;100.00
39075;BME280;24826;52.070;20.970;2023-01-31T03:04:46;61529.91;;;-147.04;100.00
39075;BME280;24826;52.070;20.970;2023-01-31T03:07:34;61462.28;;;-147.04;100.00
39075;BME280;24826;52.070;20.970;2023-01-31T03:10:45;61472.22;;;-147.04;100.00
39075;BME280;24826;52.070;20.970;2023-01-31T03:16:53;61458.31;;;-147.04;100.00
39075;BME280;24826;52.070;20.970;2023-01-31T03:22:57;61486.16;;;-147.04;100.00
39075;BME280;24826;52.070;20.970;2023-01-31T03:25:43;61488.13;;;-147.04;100.00
39075;BME280;24826;52.070;20.970;2023-01-31T03:28:31;61492.13;;;-147.04;100.00
39075;BME280;24826;52.070;20.970;2023-01-31T03:31:18;61512.00;;;-147.04;100.00
39075;BME280;24826;52.070;20.970;2023-01-31T03:34:07;61458.31;;;-147.04;100.00
39075;BME280;24826;52.070;20.970;2023-01-31T03:36:58;61460.31;;;-147.04;100.00
39075;BME280;24826;52.070;20.970;2023-01-31T03:40:04;61496.09;;;-147.04;100.00
39075;BME280;24826;52.070;20.970;2023-01-31T03:45:47;61496.09;;;-147.04;100.00
39075;BME280;24826;52.070;20.970;2023-01-31T03:48:38;61448.38;;;-147.04;100.00
39075;BME280;24826;52.070;20.970;2023-01-31T03:51:27;61472.22;;;-147.04;100.00
39075;BME280;24826;52.070;20.970;2023-01-31T03:54:19;61452.34;;;-147.04;100.00
39075;BME280;24826;52.070;20.970;2023-01-31T03:57:19;61482.19;;;-147.04;100.00
39075;BME280;24826;52.070;20.970;2023-01-31T04:00:10;61484.16;;;-147.04;100.00
39075;BME280;24826;52.070;20.970;2023-01-31T04:03:03;61472.22;;;-147.04;100.00
39075;BME280;24826;52.070;20.970;2023-01-31T04:05:49;61476.22;;;-147.04;100.00
39075;BME280;24826;52.070;20.970;2023-01-31T04:08:34;61470.25;;;-147.04;100.00
39075;BME280;24826;52.070;20.970;2023-01-31T04:11:20;61502.06;;;-147.04;100.00
39075;BME280;24826;52.070;20.970;2023-01-31T04:14:08;61472.22;;;-147.04;100.00
39075;BME280;24826;52.070;20.970;2023-01-31T04:16:53;61458.31;;;-147.04;100.00
39075;BME280;24826;52.070;20.970;2023-01-31T04:19:37;61492.13;;;-147.04;100.00
39075;BME280;24826;52.070;20.970;2023-01-31T04:22:21;61490.13;;;-147.04;100.00
39075;BME280;24826;52.070;20.970;2023-01-31T04:25:06;61476.22;;;-147.04;100.00
39075;BME280;24826;52.070;20.970;2023-01-31T04:27:51;61464.28;;;-147.04;100.00
39075;BME280;24826;52.070;20.970;2023-01-31T04:30:36;61480.19;;;-147.04;100.00
39075;BME280;24826;52.070;20.970;2023-01-31T04:33:21;61464.28;;;-147.04;100.00
39075;BME280;24826;52.070;20.970;2023-01-31T04:36:06;61448.38;;;-147.04;100.00
39075;BME280;24826;52.070;20.970;2023-01-31T04:38:51;61488.13;;;-147.04;100.00
39075;BME280;24826;52.070;20.970;2023-01-31T04:41:35;61472.22;;;-147.04;100.00
39075;BME280;24826;52.070;20.970;2023-01-31T04:44:19;61472.22;;;-147.04;100.00
39075;BME280;24826;52.070;20.970;2023-01-31T04:47:04;61464.28;;;-147.04;99.65
39075;BME280;24826;52.070;20.970;2023-01-31T04:49:48;61639.25;;;-147.04;99.84
39075;BME280;24826;52.070;20.970;2023-01-31T04:52:32;61464.28;;;-147.04;100.00
39075;BME280;24826;52.070;20.970;2023-01-31T04:55:17;61448.38;;;-147.04;99.62
39075;BME280;24826;52.070;20.970;2023-01-31T04:58:02;61440.41;;;-147.04;98.87
39075;BME280;24826;52.070;20.970;2023-01-31T05:00:46;61494.09;;;-147.04;98.52
39075;BME280;24826;52.070;20.970;2023-01-31T05:03:31;61488.13;;;-147.04;98.92
39075;BME280;24826;52.070;20.970;2023-01-31T05:06:15;61452.34;;;-147.04;98.83
39075;BME280;24826;52.070;20.970;2023-01-31T05:09:00;61506.03;;;-147.04;98.58
39075;BME280;24826;52.070;20.970;2023-01-31T05:11:44;61468.25;;;-147.04;98.56
39075;BME280;24826;52.070;20.970;2023-01-31T05:14:30;61462.28;;;-147.04;98.02
39075;BME280;24826;52.070;20.970;2023-01-31T05:17:15;61496.09;;;-147.04;98.17
39075;BME280;24826;52.070;20.970;2023-01-31T05:19:59;61448.38;;;-147.04;97.58
39075;BME280;24826;52.070;20.970;2023-01-31T05:22:47;61462.28;;;-147.04;98.20
39075;BME280;24826;52.070;20.970;2023-01-31T05:25:34;61470.25;;;-147.04;97.97
39075;BME280;24826;52.070;20.970;2023-01-31T05:28:18;61456.31;;;-147.04;97.34
39075;BME280;24826;52.070;20.970;2023-01-31T05:31:05;61468.25;;;-147.04;97.99
39075;BME280;24826;52.070;20.970;2023-01-31T05:33:50;61454.34;;;-147.04;97.54
39075;BME280;24826;52.070;20.970;2023-01-31T05:36:35;61486.16;;;-147.04;97.51
39075;BME280;24826;52.070;20.970;2023-01-31T05:39:19;61464.28;;;-147.04;97.50
39075;BME280;24826;52.070;20.970;2023-01-31T05:42:04;61470.25;;;-147.04;97.33
39075;BME280;24826;52.070;20.970;2023-01-31T05:44:48;61492.13;;;-147.04;97.37
39075;BME280;24826;52.070;20.970;2023-01-31T05:47:33;61470.25;;;-147.04;96.97
39075;BME280;24826;52.070;20.970;2023-01-31T05:50:18;61492.13;;;-147.04;97.07
39075;BME280;24826;52.070;20.970;2023-01-31T05:53:03;61452.34;;;-147.04;96.81
39075;BME280;24826;52.070;20.970;2023-01-31T05:55:47;61470.25;;;-147.04;97.24
39075;BME280;24826;52.070;20.970;2023-01-31T05:58:33;61468.25;;;-147.04;97.40
39075;BME280;24826;52.070;20.970;2023-01-31T06:01:23;61454.34;;;-147.04;97.25
39075;BME280;24826;52.070;20.970;2023-01-31T06:04:09;61460.31;;;-147.04;96.87
39075;BME280;24826;52.070;20.970;2023-01-31T06:06:53;61476.22;;;-147.04;96.57
39075;BME280;24826;52.070;20.970;2023-01-31T06:09:38;61480.19;;;-147.04;96.84
39075;BME280;24826;52.070;20.970;2023-01-31T06:12:24;61440.41;;;-147.04;97.09
39075;BME280;24826;52.070;20.970;2023-01-31T06:15:10;61440.41;;;-147.04;96.63
39075;BME280;24826;52.070;20.970;2023-01-31T06:17:54;61484.16;;;-147.04;96.37
39075;BME280;24826;52.070;20.970;2023-01-31T06:20:39;61446.38;;;-147.04;96.88
39075;BME280;24826;52.070;20.970;2023-01-31T06:23:23;61460.31;;;-147.04;96.99
39075;BME280;24826;52.070;20.970;2023-01-31T06:26:08;61486.16;;;-147.04;96.59
39075;BME280;24826;52.070;20.970;2023-01-31T06:28:52;61464.28;;;-147.04;96.30
39075;BME280;24826;52.070;20.970;2023-01-31T06:31:37;61462.28;;;-147.04;96.14
39075;BME280;24826;52.070;20.970;2023-01-31T06:34:21;61458.31;;;-147.04;96.27
39075;BME280;24826;52.070;20.970;2023-01-31T06:37:08;61456.31;;;-147.04;96.17
39075;BME280;24826;52.070;20.970;2023-01-31T06:39:54;61476.22;;;-147.04;95.92
39075;BME280;24826;52.070;20.970;2023-01-31T06:42:38;61454.34;;;-147.04;96.29
39075;BME280;24826;52.070;20.970;2023-01-31T06:45:22;61486.16;;;-147.04;96.27
39075;BME280;24826;52.070;20.970;2023-01-31T06:48:07;61448.38;;;-147.04;96.27
39075;BME280;24826;52.070;20.970;2023-01-31T06:50:51;61490.13;;;-147.04;96.08
39075;BME280;24826;52.070;20.970;2023-01-31T06:53:36;61452.34;;;-147.04;95.89
39075;BME280;24826;52.070;20.970;2023-01-31T06:56:21;61456.31;;;-147.04;96.54
39075;BME280;24826;52.070;20.970;2023-01-31T06:59:05;61452.34;;;-147.04;96.80
39075;BME280;24826;52.070;20.970;2023-01-31T07:01:49;61452.34;;;-147.04;96.76
39075;BME280;24826;52.070;20.970;2023-01-31T07:04:34;61488.13;;;-147.04;96.37
39075;BME280;24826;52.070;20.970;2023-01-31T07:07:18;61462.28;;;-147.04;95.83
39075;BME280;24826;52.070;20.970;2023-01-31T07:10:03;61468.25;;;-147.04;95.61
39075;BME280;24826;52.070;20.970;2023-01-31T07:12:48;61484.16;;;-147.04;96.36
39075;BME280;24826;52.070;20.970;2023-01-31T07:15:32;61494.09;;;-147.04;96.14
39075;BME280;24826;52.070;20.970;2023-01-31T07:18:17;61510.00;;;-147.04;95.82
39075;BME280;24826;52.070;20.970;2023-01-31T07:21:02;61494.09;;;-147.04;95.73
39075;BME280;24826;52.070;20.970;2023-01-31T07:23:46;61452.34;;;-147.04;95.47
39075;BME280;24826;52.070;20.970;2023-01-31T07:26:30;61492.13;;;-147.04;95.59
39075;BME280;24826;52.070;20.970;2023-01-31T07:29:15;61595.53;;;-147.04;95.07
39075;BME280;24826;52.070;20.970;2023-01-31T07:31:59;61527.91;;;-147.04;95.49
39075;BME280;24826;52.070;20.970;2023-01-31T07:34:44;61515.97;;;-147.04;94.55
39075;BME280;24826;52.070;20.970;2023-01-31T07:37:29;61450.34;;;-147.04;94.25
39075;BME280;24826;52.070;20.970;2023-01-31T07:40:14;61508.03;;;-147.04;94.24
39075;BME280;24826;52.070;20.970;2023-01-31T07:42:59;61488.13;;;-147.04;94.96
39075;BME280;24826;52.070;20.970;2023-01-31T07:45:43;61527.91;;;-147.04;94.59
39075;BME280;24826;52.070;20.970;2023-01-31T07:48:27;61508.03;;;-147.04;94.29
39075;BME280;24826;52.070;20.970;2023-01-31T07:51:11;61484.16;;;-147.04;93.93
39075;BME280;24826;52.070;20.970;2023-01-31T07:53:56;61523.94;;;-147.04;93.93
39075;BME280;24826;52.070;20.970;2023-01-31T07:56:40;61468.25;;;-147.04;93.67
39075;BME280;24826;52.070;20.970;2023-01-31T07:59:25;61521.94;;;-147.04;93.73
39075;BME280;24826;52.070;20.970;2023-01-31T08:02:13;61510.00;;;-147.04;92.46
39075;BME280;24826;52.070;20.970;2023-01-31T08:05:17;61519.94;;;-147.04;92.86
39075;BME280;24826;52.070;20.970;2023-01-31T08:08:02;61500.06;;;-147.04;92.73
39075;BME280;24826;52.070;20.970;2023-01-31T08:10:53;61515.97;;;-147.04;92.23
39075;BME280;24826;52.070;20.970;2023-01-31T08:13:37;61514.00;;;-147.04;90.56
39075;BME280;24826;52.070;20.970;2023-01-31T08:16:23;61527.91;;;-147.04;90.56
39075;BME280;24826;52.070;20.970;2023-01-31T08:19:08;61508.03;;;-147.04;91.54
39075;BME280;24826;52.070;20.970;2023-01-31T08:21:52;61512.00;;;-147.04;91.19
39075;BME280;24826;52.070;20.970;2023-01-31T08:24:37;61535.88;;;-147.04;90.51
39075;BME280;24826;52.070;20.970;2023-01-31T08:27:21;61523.94;;;-147.04;91.41
39075;BME280;24826;52.070;20.970;2023-01-31T08:30:06;61508.03;;;-147.04;90.31
39075;BME280;24826;52.070;20.970;2023-01-31T08:32:50;61535.88;;;-147.04;90.01
39075;BME280;24826;52.070;20.970;2023-01-31T08:35:35;61523.94;;;-147.04;89.65
39075;BME280;24826;52.070;20.970;2023-01-31T08:38:19;61527.91;;;-147.04;89.30
39075;BME280;24826;52.070;20.970;2023-01-31T08:41:03;61510.00;;;-147.04;88.73
39075;BME280;24826;52.070;20.970;2023-01-31T08:43:48;61508.03;;;-147.04;88.47
39075;BME280;24826;52.070;20.970;2023-01-31T08:46:34;61517.97;;;-147.04;88.71
39075;BME280;24826;52.070;20.970;2023-01-31T08:49:19;61519.94;;;-147.04;87.73
39075;BME280;24826;52.070;20.970;2023-01-31T08:52:03;61527.91;;;-147.04;87.54
39075;BME280;24826;52.070;20.970;2023-01-31T08:54:48;61557.75;;;-147.04;87.18
39075;BME280;24826;52.070;20.970;2023-01-31T08:57:32;61527.91;;;-147.04;85.95
39075;BME280;24826;52.070;20.970;2023-01-31T09:00:18;61496.09;;;-147.04;86.30
39075;BME280;24826;52.070;20.970;2023-01-31T09:03:03;61547.78;;;-147.04;85.89
39075;BME280;24826;52.070;20.970;2023-01-31T09:05:48;61523.94;;;-147.04;86.45
39075;BME280;24826;52.070;20.970;2023-01-31T09:08:32;61523.94;;;-147.04;86.19
39075;BME280;24826;52.070;20.970;2023-01-31T09:11:17;61514.00;;;-147.04;85.80
39075;BME280;24826;52.070;20.970;2023-01-31T09:14:02;61500.06;;;-147.04;85.59
39075;BME280;24826;52.070;20.970;2023-01-31T09:16:46;61508.03;;;-147.04;85.14
39075;BME280;24826;52.070;20.970;2023-01-31T09:19:31;61498.09;;;-147.04;85.94
39075;BME280;24826;52.070;20.970;2023-01-31T09:22:15;61527.91;;;-147.04;85.76
39075;BME280;24826;52.070;20.970;2023-01-31T09:25:00;61496.09;;;-147.04;85.48
39075;BME280;24826;52.070;20.970;2023-01-31T09:27:45;61502.06;;;-147.04;85.08
39075;BME280;24826;52.070;20.970;2023-01-31T09:30:29;61512.00;;;-147.04;85.15
39075;BME280;24826;52.070;20.970;2023-01-31T09:33:14;61519.94;;;-147.04;84.39
39075;BME280;24826;52.070;20.970;2023-01-31T09:36:01;61523.94;;;-147.04;84.63
39075;BME280;24826;52.070;20.970;2023-01-31T09:38:47;61535.88;;;-147.04;84.54
39075;BME280;24826;52.070;20.970;2023-01-31T09:41:37;61502.06;;;-147.04;84.02
39075;BME280;24826;52.070;20.970;2023-01-31T09:44:28;61500.06;;;-147.04;84.09
39075;BME280;24826;52.070;20.970;2023-01-31T09:47:22;61500.06;;;-147.04;84.29
39075;BME280;24826;52.070;20.970;2023-01-31T09:50:22;61514.00;;;-147.04;84.00
39075;BME280;24826;52.070;20.970;2023-01-31T09:53:15;61535.88;;;-147.04;83.83
39075;BME280;24826;52.070;20.970;2023-01-31T10:00:20;61541.81;;;-147.04;83.48
39075;BME280;24826;52.070;20.970;2023-01-31T10:09:30;61508.03;;;-147.04;82.79
39075;BME280;24826;52.070;20.970;2023-01-31T10:12:29;61521.94;;;-147.04;82.66
39075;BME280;24826;52.070;20.970;2023-01-31T10:18:27;61498.09;;;-147.04;81.77
39075;BME280;24826;52.070;20.970;2023-01-31T10:21:18;61508.03;;;-147.04;81.45
39075;BME280;24826;52.070;20.970;2023-01-31T10:24:14;61519.94;;;-147.04;81.68
39075;BME280;24826;52.070;20.970;2023-01-31T10:27:06;61502.06;;;-147.04;80.98
39075;BME280;24826;52.070;20.970;2023-01-31T10:29:56;61494.09;;;-147.04;80.94
39075;BME280;24826;52.070;20.970;2023-01-31T10:32:45;61488.13;;;-147.04;80.88
39075;BME280;24826;52.070;20.970;2023-01-31T10:35:39;61496.09;;;-147.04;81.11
39075;BME280;24826;52.070;20.970;2023-01-31T10:38:32;61504.03;;;-147.04;80.97
39075;BME280;24826;52.070;20.970;2023-01-31T10:41:23;61458.31;;;-147.04;80.27
39075;BME280;24826;52.070;20.970;2023-01-31T10:44:20;61527.91;;;-147.04;80.99
39075;BME280;24826;52.070;20.970;2023-01-31T10:47:14;61500.06;;;-147.04;80.77
39075;BME280;24826;52.070;20.970;2023-01-31T10:50:00;61496.09;;;-147.04;80.34
39075;BME280;24826;52.070;20.970;2023-01-31T10:55:46;61494.09;;;-147.04;80.09
39075;BME280;24826;52.070;20.970;2023-01-31T10:58:35;61474.22;;;-147.04;80.19
39075;BME280;24826;52.070;20.970;2023-01-31T11:01:19;61506.03;;;-147.04;80.03
39075;BME280;24826;52.070;20.970;2023-01-31T11:04:38;61549.78;;;-147.04;79.58
39075;BME280;24826;52.070;20.970;2023-01-31T11:07:27;61523.94;;;-147.04;79.84
39075;BME280;24826;52.070;20.970;2023-01-31T11:10:26;61504.03;;;-147.04;79.16
39075;BME280;24826;52.070;20.970;2023-01-31T11:13:17;61515.97;;;-147.04;79.13
39075;BME280;24826;52.070;20.970;2023-01-31T11:16:03;61496.09;;;-147.04;78.53
39075;BME280;24826;52.070;20.970;2023-01-31T11:18:50;61470.25;;;-147.04;77.03
39075;BME280;24826;52.070;20.970;2023-01-31T11:21:37;61480.19;;;-147.04;77.10
39075;BME280;24826;52.070;20.970;2023-01-31T11:24:28;61488.13;;;-147.04;76.16
39075;BME280;24826;52.070;20.970;2023-01-31T11:27:23;61519.94;;;-147.04;76.29
39075;BME280;24826;52.070;20.970;2023-01-31T11:30:28;61512.00;;;-147.04;76.10
39075;BME280;24826;52.070;20.970;2023-01-31T11:33:36;61517.97;;;-147.04;75.11
39075;BME280;24826;52.070;20.970;2023-01-31T11:36:21;61502.06;;;-147.04;74.46
39075;BME280;24826;52.070;20.970;2023-01-31T11:39:39;61476.22;;;-147.04;74.60
39075;BME280;24826;52.070;20.970;2023-01-31T11:42:24;61514.00;;;-147.04;74.75
39075;BME280;24826;52.070;20.970;2023-01-31T11:45:19;61500.06;;;-147.04;74.67
39075;BME280;24826;52.070;20.970;2023-01-31T11:48:08;61496.09;;;-147.04;73.76
39075;BME280;24826;52.070;20.970;2023-01-31T11:51:00;61482.19;;;-147.04;73.18
39075;BME280;24826;52.070;20.970;2023-01-31T11:53:48;61510.00;;;-147.04;72.65
39075;BME280;24826;52.070;20.970;2023-01-31T11:56:35;61494.09;;;-147.04;72.19
39075;BME280;24826;52.070;20.970;2023-01-31T11:59:25;61515.97;;;-147.04;72.00
39075;BME280;24826;52.070;20.970;2023-01-31T12:02:36;61525.91;;;-147.04;71.84
39075;BME280;24826;52.070;20.970;2023-01-31T12:05:22;61510.00;;;-147.04;71.51
39075;BME280;24826;52.070;20.970;2023-01-31T12:08:31;61496.09;;;-147.04;71.82
39075;BME280;24826;52.070;20.970;2023-01-31T12:16:53;61476.22;;;-147.04;71.18
39075;BME280;24826;52.070;20.970;2023-01-31T12:20:06;61484.16;;;-147.04;71.59
39075;BME280;24826;52.070;20.970;2023-01-31T12:23:16;61432.47;;;-147.04;72.00
39075;BME280;24826;52.070;20.970;2023-01-31T12:26:11;61460.31;;;-147.04;71.95
39075;BME280;24826;52.070;20.970;2023-01-31T12:29:18;61456.31;;;-147.04;71.81
39075;BME280;24826;52.070;20.970;2023-01-31T12:42:50;61458.31;;;-147.04;69.84
39075;BME280;24826;52.070;20.970;2023-01-31T12:48:47;61434.44;;;-147.04;69.67
39075;BME280;24826;52.070;20.970;2023-01-31T12:58:08;61436.44;;;-147.04;69.13
39075;BME280;24826;52.070;20.970;2023-01-31T13:01:19;61438.44;;;-147.04;68.68
39075;BME280;24826;52.070;20.970;2023-01-31T13:13:25;61480.19;;;-147.04;69.18
39075;BME280;24826;52.070;20.970;2023-01-31T13:16:30;61523.94;;;-147.04;68.87
39075;BME280;24826;52.070;20.970;2023-01-31T13:19:22;61567.69;;;-147.04;67.49
39075;BME280;24826;52.070;20.970;2023-01-31T13:22:17;61462.28;;;-147.04;67.39
39075;BME280;24826;52.070;20.970;2023-01-31T13:25:39;61464.28;;;-147.04;66.49
39075;BME280;24826;52.070;20.970;2023-01-31T13:28:31;61490.13;;;-147.04;66.81
39075;BME280;24826;52.070;20.970;2023-01-31T13:31:30;61515.97;;;-147.04;67.37
39075;BME280;24826;52.070;20.970;2023-01-31T13:34:28;61484.16;;;-147.04;66.65
39075;BME280;24826;52.070;20.970;2023-01-31T13:37:15;61496.09;;;-147.04;66.65
39075;BME280;24826;52.070;20.970;2023-01-31T13:40:30;61464.28;;;-147.04;66.32
39075;BME280;24826;52.070;20.970;2023-01-31T13:43:17;61476.22;;;-147.04;65.46
39075;BME280;24826;52.070;20.970;2023-01-31T13:46:04;61468.25;;;-147.04;64.23
39075;BME280;24826;52.070;20.970;2023-01-31T13:49:02;61426.50;;;-147.04;64.09
39075;BME280;24826;52.070;20.970;2023-01-31T13:51:58;61404.63;;;-147.04;64.56
39075;BME280;24826;52.070;20.970;2023-01-31T13:54:56;61420.53;;;-147.04;64.45
39075;BME280;24826;52.070;20.970;2023-01-31T13:57:49;61436.44;;;-147.04;65.21
39075;BME280;24826;52.070;20.970;2023-01-31T14:03:20;61450.34;;;-147.04;65.79
39075;BME280;24826;52.070;20.970;2023-01-31T14:06:04;61424.50;;;-147.04;66.32
39075;BME280;24826;52.070;20.970;2023-01-31T14:11:34;61390.72;;;-147.04;67.07
39075;BME280;24826;52.070;20.970;2023-01-31T14:20:06;61422.53;;;-147.04;66.96
39075;BME280;24826;52.070;20.970;2023-01-31T14:23:27;61424.50;;;-147.04;67.09
39075;BME280;24826;52.070;20.970;2023-01-31T14:29:27;61428.47;;;-147.04;67.38
39075;BME280;24826;52.070;20.970;2023-01-31T14:32:34;61446.38;;;-147.04;67.41
39075;BME280;24826;52.070;20.970;2023-01-31T14:39:17;61476.22;;;-147.04;68.26
39075;BME280;24826;52.070;20.970;2023-01-31T14:46:01;61436.44;;;-147.04;67.88
39075;BME280;24826;52.070;20.970;2023-01-31T14:49:09;61440.41;;;-147.04;68.60
39075;BME280;24826;52.070;20.970;2023-01-31T14:55:57;61436.44;;;-147.04;68.79
39075;BME280;24826;52.070;20.970;2023-01-31T14:58:46;61396.66;;;-147.04;68.89
39075;BME280;24826;52.070;20.970;2023-01-31T15:01:33;61396.66;;;-147.04;68.56
39075;BME280;24826;52.070;20.970;2023-01-31T15:04:21;61432.47;;;-147.04;68.31
39075;BME280;24826;52.070;20.970;2023-01-31T15:07:14;61458.31;;;-147.04;69.11
39075;BME280;24826;52.070;20.970;2023-01-31T15:09:59;61442.41;;;-147.04;69.31
39075;BME280;24826;52.070;20.970;2023-01-31T15:12:52;61400.66;;;-147.04;69.66
39075;BME280;24826;52.070;20.970;2023-01-31T15:15:38;61448.38;;;-147.04;69.58
39075;BME280;24826;52.070;20.970;2023-01-31T15:18:24;61432.47;;;-147.04;69.12
39075;BME280;24826;52.070;20.970;2023-01-31T15:21:10;61448.38;;;-147.04;69.59
39075;BME280;24826;52.070;20.970;2023-01-31T15:23:57;61446.38;;;-147.04;68.95
39075;BME280;24826;52.070;20.970;2023-01-31T15:26:42;61452.34;;;-147.04;69.96
39075;BME280;24826;52.070;20.970;2023-01-31T15:29:35;61426.50;;;-147.04;68.85
39075;BME280;24826;52.070;20.970;2023-01-31T15:32:33;61430.47;;;-147.04;69.35
39075;BME280;24826;52.070;20.970;2023-01-31T15:35:29;61412.56;;;-147.04;69.54
39075;BME280;24826;52.070;20.970;2023-01-31T15:38:46;61396.66;;;-147.04;69.33
39075;BME280;24826;52.070;20.970;2023-01-31T15:41:35;61412.56;;;-147.04;69.79
39075;BME280;24826;52.070;20.970;2023-01-31T15:44:22;61434.44;;;-147.04;70.43
39075;BME280;24826;52.070;20.970;2023-01-31T15:47:19;61496.09;;;-147.04;69.81
39075;BME280;24826;52.070;20.970;2023-01-31T15:50:15;61422.53;;;-147.04;70.26
39075;BME280;24826;52.070;20.970;2023-01-31T15:53:02;61428.47;;;-147.04;71.03
39075;BME280;24826;52.070;20.970;2023-01-31T15:55:49;61432.47;;;-147.04;71.30
39075;BME280;24826;52.070;20.970;2023-01-31T15:58:36;61434.44;;;-147.04;71.58
39075;BME280;24826;52.070;20.970;2023-01-31T16:01:20;61424.50;;;-147.04;72.21
39075;BME280;24826;52.070;20.970;2023-01-31T16:04:05;61436.44;;;-147.04;72.30